sensor_id;sensor_type;location;lat;lon;timestamp;P1;durP1;ratioP1;P2;durP2;ratioP2
12214;SDS011;6170;42.206;24.142;2022-11-02T00:00:43;13.35;;;4.78;;
12214;SDS011;6170;42.206;24.142;2022-11-02T00:03:10;10.35;;;5.28;;
12214;SDS011;6170;42.206;24.142;2022-11-02T00:05:37;14.77;;;5.57;;
12214;SDS011;6170;42.206;24.142;2022-11-02T00:08:04;13.20;;;4.85;;
12214;SDS011;6170;42.206;24.142;2022-11-02T00:10:30;14.73;;;5.85;;
12214;SDS011;6170;42.206;24.142;2022-11-02T00:12:57;14.48;;;5.65;;
12214;SDS011;6170;42.206;24.142;2022-11-02T00:15:24;8.90;;;4.80;;
12214;SDS011;6170;42.206;24.142;2022-11-02T00:17:57;14.50;;;5.38;;
12214;SDS011;6170;42.206;24.142;2022-11-02T00:20:27;12.10;;;5.97;;
12214;SDS011;6170;42.206;24.142;2022-11-02T00:22:54;11.27;;;5.43;;
12214;SDS011;6170;42.206;24.142;2022-11-02T00:25:23;20.85;;;5.80;;
12214;SDS011;6170;42.206;24.142;2022-11-02T00:27:51;12.07;;;5.65;;
12214;SDS011;6170;42.206;24.142;2022-11-02T00:30:18;15.05;;;5.40;;
12214;SDS011;6170;42.206;24.142;2022-11-02T00:32:45;14.98;;;5.47;;
12214;SDS011;6170;42.206;24.142;2022-11-02T00:35:13;12.20;;;5.45;;
12214;SDS011;6170;42.206;24.142;2022-11-02T00:37:40;13.57;;;5.30;;
12214;SDS011;6170;42.206;24.142;2022-11-02T00:40:07;10.93;;;5.10;;
12214;SDS011;6170;42.206;24.142;2022-11-02T00:42:35;13.73;;;5.72;;
12214;SDS011;6170;42.206;24.142;2022-11-02T00:45:02;13.07;;;5.28;;
12214;SDS011;6170;42.206;24.142;2022-11-02T00:47:29;11.57;;;5.20;;
12214;SDS011;6170;42.206;24.142;2022-11-02T00:49:55;17.85;;;5.65;;
12214;SDS011;6170;42.206;24.142;2022-11-02T00:52:24;9.32;;;5.57;;
12214;SDS011;6170;42.206;24.142;2022-11-02T00:54:50;15.50;;;5.55;;
12214;SDS011;6170;42.206;24.142;2022-11-02T00:57:17;12.68;;;6.07;;
12214;SDS011;6170;42.206;24.142;2022-11-02T00:59:44;20.58;;;6.28;;
12214;SDS011;6170;42.206;24.142;2022-11-02T01:02:11;17.63;;;5.32;;
12214;SDS011;6170;42.206;24.142;2022-11-02T01:04:37;18.67;;;6.00;;
12214;SDS011;6170;42.206;24.142;2022-11-02T01:07:04;16.30;;;5.80;;
12214;SDS011;6170;42.206;24.142;2022-11-02T01:09:32;12.57;;;5.47;;
12214;SDS011;6170;42.206;24.142;2022-11-02T01:11:59;11.75;;;5.43;;
12214;SDS011;6170;42.206;24.142;2022-11-02T01:14:26;11.13;;;5.20;;
12214;SDS011;6170;42.206;24.142;2022-11-02T01:16:53;17.60;;;6.30;;
12214;SDS011;6170;42.206;24.142;2022-11-02T01:19:22;20.85;;;6.72;;
12214;SDS011;6170;42.206;24.142;2022-11-02T01:21:49;17.50;;;6.80;;
12214;SDS011;6170;42.206;24.142;2022-11-02T01:24:15;12.23;;;5.68;;
12214;SDS011;6170;42.206;24.142;2022-11-02T01:26:43;14.93;;;5.80;;
12214;SDS011;6170;42.206;24.142;2022-11-02T01:29:10;14.93;;;5.78;;
12214;SDS011;6170;42.206;24.142;2022-11-02T01:31:37;14.70;;;5.95;;
12214;SDS011;6170;42.206;24.142;2022-11-02T01:34:04;13.85;;;6.03;;
12214;SDS011;6170;42.206;24.142;2022-11-02T01:36:30;20.75;;;6.65;;
12214;SDS011;6170;42.206;24.142;2022-11-02T01:38:57;13.50;;;5.57;;
12214;SDS011;6170;42.206;24.142;2022-11-02T01:41:24;14.80;;;5.78;;
12214;SDS011;6170;42.206;24.142;2022-11-02T01:43:52;20.52;;;5.78;;
12214;SDS011;6170;42.206;24.142;2022-11-02T01:46:23;14.68;;;6.00;;
12214;SDS011;6170;42.206;24.142;2022-11-02T01:48:57;12.85;;;5.50;;
12214;SDS011;6170;42.206;24.142;2022-11-02T01:51:29;12.20;;;6.18;;
12214;SDS011;6170;42.206;24.142;2022-11-02T01:53:59;18.45;;;5.45;;
12214;SDS011;6170;42.206;24.142;2022-11-02T01:56:31;10.55;;;5.38;;
12214;SDS011;6170;42.206;24.142;2022-11-02T01:59:02;16.50;;;6.28;;
12214;SDS011;6170;42.206;24.142;2022-11-02T02:01:31;11.63;;;5.78;;
12214;SDS011;6170;42.206;24.142;2022-11-02T02:03:58;17.33;;;5.70;;
12214;SDS011;6170;42.206;24.142;2022-11-02T02:06:27;19.45;;;6.30;;
12214;SDS011;6170;42.206;24.142;2022-11-02T02:08:56;12.50;;;5.85;;
12214;SDS011;6170;42.206;24.142;2022-11-02T02:11:26;12.13;;;5.72;;
12214;SDS011;6170;42.206;24.142;2022-11-02T02:13:55;12.15;;;5.82;;
12214;SDS011;6170;42.206;24.142;2022-11-02T02:16:27;9.85;;;5.43;;
12214;SDS011;6170;42.206;24.142;2022-11-02T02:19:07;18.42;;;5.80;;
12214;SDS011;6170;42.206;24.142;2022-11-02T02:21:46;12.32;;;5.82;;
12214;SDS011;6170;42.206;24.142;2022-11-02T02:24:24;11.88;;;5.93;;
12214;SDS011;6170;42.206;24.142;2022-11-02T02:27:04;13.73;;;5.78;;
12214;SDS011;6170;42.206;24.142;2022-11-02T02:29:45;17.25;;;5.55;;
12214;SDS011;6170;42.206;24.142;2022-11-02T02:32:18;11.75;;;4.90;;
12214;SDS011;6170;42.206;24.142;2022-11-02T02:34:50;8.93;;;5.15;;
12214;SDS011;6170;42.206;24.142;2022-11-02T02:37:23;12.77;;;5.15;;
12214;SDS011;6170;42.206;24.142;2022-11-02T02:39:56;12.52;;;4.80;;
12214;SDS011;6170;42.206;24.142;2022-11-02T02:42:29;16.13;;;4.95;;
12214;SDS011;6170;42.206;24.142;2022-11-02T02:45:03;10.80;;;5.25;;
12214;SDS011;6170;42.206;24.142;2022-11-02T02:47:37;16.67;;;5.53;;
12214;SDS011;6170;42.206;24.142;2022-11-02T02:50:10;15.80;;;5.93;;
12214;SDS011;6170;42.206;24.142;2022-11-02T02:52:41;12.20;;;5.15;;
12214;SDS011;6170;42.206;24.142;2022-11-02T02:55:12;10.32;;;4.35;;
12214;SDS011;6170;42.206;24.142;2022-11-02T02:57:42;15.85;;;5.45;;
12214;SDS011;6170;42.206;24.142;2022-11-02T03:00:14;10.65;;;5.18;;
12214;SDS011;6170;42.206;24.142;2022-11-02T03:02:42;7.15;;;4.07;;
12214;SDS011;6170;42.206;24.142;2022-11-02T03:05:25;20.40;;;5.30;;
12214;SDS011;6170;42.206;24.142;2022-11-02T03:07:53;17.00;;;4.72;;
12214;SDS011;6170;42.206;24.142;2022-11-02T03:10:24;13.85;;;4.82;;
12214;SDS011;6170;42.206;24.142;2022-11-02T03:13:00;11.02;;;4.90;;
12214;SDS011;6170;42.206;24.142;2022-11-02T03:15:37;9.65;;;4.07;;
12214;SDS011;6170;42.206;24.142;2022-11-02T03:18:07;17.98;;;4.90;;
12214;SDS011;6170;42.206;24.142;2022-11-02T03:20:44;17.58;;;4.65;;
12214;SDS011;6170;42.206;24.142;2022-11-02T03:23:20;23.10;;;5.68;;
12214;SDS011;6170;42.206;24.142;2022-11-02T03:25:55;11.93;;;4.60;;
12214;SDS011;6170;42.206;24.142;2022-11-02T03:28:37;9.95;;;4.25;;
12214;SDS011;6170;42.206;24.142;2022-11-02T03:31:16;17.15;;;5.13;;
12214;SDS011;6170;42.206;24.142;2022-11-02T03:33:49;13.63;;;4.50;;
12214;SDS011;6170;42.206;24.142;2022-11-02T03:36:24;12.80;;;5.15;;
12214;SDS011;6170;42.206;24.142;2022-11-02T03:38:58;13.15;;;5.07;;
12214;SDS011;6170;42.206;24.142;2022-11-02T03:41:29;42.90;;;7.33;;
12214;SDS011;6170;42.206;24.142;2022-11-02T03:43:58;16.92;;;5.05;;
12214;SDS011;6170;42.206;24.142;2022-11-02T03:46:33;13.75;;;4.97;;
12214;SDS011;6170;42.206;24.142;2022-11-02T03:49:04;19.07;;;5.63;;
12214;SDS011;6170;42.206;24.142;2022-11-02T03:51:33;11.68;;;5.57;;
12214;SDS011;6170;42.206;24.142;2022-11-02T03:54:05;10.93;;;5.77;;
12214;SDS011;6170;42.206;24.142;2022-11-02T03:56:38;13.27;;;5.57;;
12214;SDS011;6170;42.206;24.142;2022-11-02T03:59:09;17.25;;;5.20;;
12214;SDS011;6170;42.206;24.142;2022-11-02T04:01:37;19.58;;;5.57;;
12214;SDS011;6170;42.206;24.142;2022-11-02T04:04:06;19.58;;;5.97;;
12214;SDS011;6170;42.206;24.142;2022-11-02T04:06:33;14.43;;;5.45;;
12214;SDS011;6170;42.206;24.142;2022-11-02T04:09:00;20.88;;;5.90;;
12214;SDS011;6170;42.206;24.142;2022-11-02T04:11:29;18.85;;;6.22;;
12214;SDS011;6170;42.206;24.142;2022-11-02T04:14:10;19.25;;;5.72;;
12214;SDS011;6170;42.206;24.142;2022-11-02T04:16:55;12.73;;;4.82;;
12214;SDS011;6170;42.206;24.142;2022-11-02T04:19:35;17.83;;;5.70;;
12214;SDS011;6170;42.206;24.142;2022-11-02T04:22:02;16.70;;;4.30;;
12214;SDS011;6170;42.206;24.142;2022-11-02T04:24:46;14.10;;;4.30;;
12214;SDS011;6170;42.206;24.142;2022-11-02T04:27:31;15.50;;;4.65;;
12214;SDS011;6170;42.206;24.142;2022-11-02T04:29:58;10.02;;;4.30;;
12214;SDS011;6170;42.206;24.142;2022-11-02T04:32:26;10.27;;;4.03;;
12214;SDS011;6170;42.206;24.142;2022-11-02T04:35:11;20.85;;;5.80;;
12214;SDS011;6170;42.206;24.142;2022-11-02T04:37:38;17.20;;;4.97;;
12214;SDS011;6170;42.206;24.142;2022-11-02T04:40:22;18.08;;;5.03;;
12214;SDS011;6170;42.206;24.142;2022-11-02T04:42:49;14.05;;;4.97;;
12214;SDS011;6170;42.206;24.142;2022-11-02T04:45:16;13.88;;;4.68;;
12214;SDS011;6170;42.206;24.142;2022-11-02T04:47:44;14.80;;;4.47;;
12214;SDS011;6170;42.206;24.142;2022-11-02T04:50:11;8.65;;;4.45;;
12214;SDS011;6170;42.206;24.142;2022-11-02T04:52:37;13.75;;;4.63;;
12214;SDS011;6170;42.206;24.142;2022-11-02T04:55:05;15.38;;;5.03;;
12214;SDS011;6170;42.206;24.142;2022-11-02T04:57:32;9.57;;;4.38;;
12214;SDS011;6170;42.206;24.142;2022-11-02T04:59:59;12.57;;;4.60;;
12214;SDS011;6170;42.206;24.142;2022-11-02T05:02:26;10.20;;;4.55;;
12214;SDS011;6170;42.206;24.142;2022-11-02T05:04:54;18.25;;;5.07;;
12214;SDS011;6170;42.206;24.142;2022-11-02T05:07:21;19.35;;;7.22;;
12214;SDS011;6170;42.206;24.142;2022-11-02T05:09:47;17.42;;;6.97;;
12214;SDS011;6170;42.206;24.142;2022-11-02T05:12:14;26.70;;;10.55;;
12214;SDS011;6170;42.206;24.142;2022-11-02T05:14:41;51.35;;;21.08;;
12214;SDS011;6170;42.206;24.142;2022-11-02T05:17:08;49.33;;;19.67;;
12214;SDS011;6170;42.206;24.142;2022-11-02T05:19:34;28.58;;;10.93;;
12214;SDS011;6170;42.206;24.142;2022-11-02T05:22:02;23.65;;;7.05;;
12214;SDS011;6170;42.206;24.142;2022-11-02T05:24:29;22.10;;;6.80;;
12214;SDS011;6170;42.206;24.142;2022-11-02T05:26:56;10.95;;;5.10;;
12214;SDS011;6170;42.206;24.142;2022-11-02T05:29:24;22.15;;;7.18;;
12214;SDS011;6170;42.206;24.142;2022-11-02T05:31:51;56.33;;;17.45;;
12214;SDS011;6170;42.206;24.142;2022-11-02T05:34:18;103.65;;;39.42;;
12214;SDS011;6170;42.206;24.142;2022-11-02T05:36:46;52.63;;;19.90;;
12214;SDS011;6170;42.206;24.142;2022-11-02T05:39:15;19.95;;;7.90;;
12214;SDS011;6170;42.206;24.142;2022-11-02T05:41:42;20.08;;;6.00;;
12214;SDS011;6170;42.206;24.142;2022-11-02T05:44:09;13.82;;;5.32;;
12214;SDS011;6170;42.206;24.142;2022-11-02T05:46:35;20.02;;;5.50;;
12214;SDS011;6170;42.206;24.142;2022-11-02T05:49:02;11.98;;;5.28;;
12214;SDS011;6170;42.206;24.142;2022-11-02T05:51:29;14.90;;;5.30;;
12214;SDS011;6170;42.206;24.142;2022-11-02T05:53:56;13.82;;;4.65;;
12214;SDS011;6170;42.206;24.142;2022-11-02T05:56:24;18.77;;;6.30;;
12214;SDS011;6170;42.206;24.142;2022-11-02T05:58:52;20.38;;;5.82;;
12214;SDS011;6170;42.206;24.142;2022-11-02T06:01:19;101.82;;;12.30;;
12214;SDS011;6170;42.206;24.142;2022-11-02T06:03:46;39.13;;;6.45;;
12214;SDS011;6170;42.206;24.142;2022-11-02T06:06:13;25.50;;;5.70;;
12214;SDS011;6170;42.206;24.142;2022-11-02T06:08:39;27.70;;;5.88;;
12214;SDS011;6170;42.206;24.142;2022-11-02T06:11:07;32.33;;;6.38;;
12214;SDS011;6170;42.206;24.142;2022-11-02T06:13:36;14.73;;;6.30;;
12214;SDS011;6170;42.206;24.142;2022-11-02T06:16:04;55.45;;;6.68;;
12214;SDS011;6170;42.206;24.142;2022-11-02T06:18:33;59.47;;;7.50;;
12214;SDS011;6170;42.206;24.142;2022-11-02T06:21:00;42.58;;;8.10;;
12214;SDS011;6170;42.206;24.142;2022-11-02T06:23:27;44.35;;;8.30;;
12214;SDS011;6170;42.206;24.142;2022-11-02T06:25:55;45.35;;;7.82;;
12214;SDS011;6170;42.206;24.142;2022-11-02T06:28:23;46.65;;;7.88;;
12214;SDS011;6170;42.206;24.142;2022-11-02T06:30:52;29.05;;;6.38;;
12214;SDS011;6170;42.206;24.142;2022-11-02T06:33:19;22.17;;;5.68;;
12214;SDS011;6170;42.206;24.142;2022-11-02T06:35:46;19.83;;;6.53;;
12214;SDS011;6170;42.206;24.142;2022-11-02T06:38:14;20.58;;;5.47;;
12214;SDS011;6170;42.206;24.142;2022-11-02T06:40:41;23.50;;;5.82;;
12214;SDS011;6170;42.206;24.142;2022-11-02T06:43:08;19.92;;;5.20;;
12214;SDS011;6170;42.206;24.142;2022-11-02T06:45:35;19.02;;;4.70;;
12214;SDS011;6170;42.206;24.142;2022-11-02T06:48:03;17.48;;;5.72;;
12214;SDS011;6170;42.206;24.142;2022-11-02T06:50:30;24.83;;;5.30;;
12214;SDS011;6170;42.206;24.142;2022-11-02T06:52:57;30.83;;;6.30;;
12214;SDS011;6170;42.206;24.142;2022-11-02T06:55:24;18.52;;;5.70;;
12214;SDS011;6170;42.206;24.142;2022-11-02T06:57:50;16.67;;;6.40;;
12214;SDS011;6170;42.206;24.142;2022-11-02T07:00:17;18.23;;;9.57;;
12214;SDS011;6170;42.206;24.142;2022-11-02T07:02:45;23.33;;;11.15;;
12214;SDS011;6170;42.206;24.142;2022-11-02T07:05:13;28.40;;;12.13;;
12214;SDS011;6170;42.206;24.142;2022-11-02T07:07:40;30.02;;;11.63;;
12214;SDS011;6170;42.206;24.142;2022-11-02T07:10:07;27.45;;;9.88;;
12214;SDS011;6170;42.206;24.142;2022-11-02T07:12:34;19.33;;;8.52;;
12214;SDS011;6170;42.206;24.142;2022-11-02T07:15:01;12.27;;;5.65;;
12214;SDS011;6170;42.206;24.142;2022-11-02T07:17:28;17.83;;;5.43;;
12214;SDS011;6170;42.206;24.142;2022-11-02T07:19:54;18.05;;;5.50;;
12214;SDS011;6170;42.206;24.142;2022-11-02T07:22:22;20.00;;;5.47;;
12214;SDS011;6170;42.206;24.142;2022-11-02T07:24:49;14.32;;;4.80;;
12214;SDS011;6170;42.206;24.142;2022-11-02T07:27:16;20.17;;;4.78;;
12214;SDS011;6170;42.206;24.142;2022-11-02T07:29:44;19.73;;;6.28;;
12214;SDS011;6170;42.206;24.142;2022-11-02T07:32:11;15.32;;;5.40;;
12214;SDS011;6170;42.206;24.142;2022-11-02T07:34:38;23.70;;;5.40;;
12214;SDS011;6170;42.206;24.142;2022-11-02T07:37:04;17.42;;;4.18;;
12214;SDS011;6170;42.206;24.142;2022-11-02T07:39:32;14.60;;;5.03;;
12214;SDS011;6170;42.206;24.142;2022-11-02T07:41:59;15.15;;;4.95;;
12214;SDS011;6170;42.206;24.142;2022-11-02T07:44:26;10.80;;;4.78;;
12214;SDS011;6170;42.206;24.142;2022-11-02T07:46:53;16.90;;;5.00;;
12214;SDS011;6170;42.206;24.142;2022-11-02T07:49:20;23.75;;;6.45;;
12214;SDS011;6170;42.206;24.142;2022-11-02T07:51:47;29.83;;;9.25;;
12214;SDS011;6170;42.206;24.142;2022-11-02T07:54:13;22.50;;;7.00;;
12214;SDS011;6170;42.206;24.142;2022-11-02T07:56:41;18.55;;;5.93;;
12214;SDS011;6170;42.206;24.142;2022-11-02T07:59:09;18.58;;;7.25;;
12214;SDS011;6170;42.206;24.142;2022-11-02T08:01:37;13.88;;;5.53;;
12214;SDS011;6170;42.206;24.142;2022-11-02T08:04:03;17.88;;;5.63;;
12214;SDS011;6170;42.206;24.142;2022-11-02T08:06:30;18.38;;;4.95;;
12214;SDS011;6170;42.206;24.142;2022-11-02T08:08:57;18.83;;;4.95;;
12214;SDS011;6170;42.206;24.142;2022-11-02T08:11:24;20.48;;;6.53;;
12214;SDS011;6170;42.206;24.142;2022-11-02T08:13:52;21.42;;;6.97;;
12214;SDS011;6170;42.206;24.142;2022-11-02T08:16:19;21.00;;;6.70;;
12214;SDS011;6170;42.206;24.142;2022-11-02T08:18:45;26.67;;;7.07;;
12214;SDS011;6170;42.206;24.142;2022-11-02T08:21:12;17.33;;;6.40;;
12214;SDS011;6170;42.206;24.142;2022-11-02T08:23:39;24.35;;;5.80;;
12214;SDS011;6170;42.206;24.142;2022-11-02T08:26:05;19.42;;;5.65;;
12214;SDS011;6170;42.206;24.142;2022-11-02T08:28:32;19.10;;;5.93;;
12214;SDS011;6170;42.206;24.142;2022-11-02T08:31:02;24.33;;;6.47;;
12214;SDS011;6170;42.206;24.142;2022-11-02T08:33:28;20.48;;;7.95;;
12214;SDS011;6170;42.206;24.142;2022-11-02T08:35:59;20.85;;;8.43;;
12214;SDS011;6170;42.206;24.142;2022-11-02T08:38:26;24.65;;;6.72;;
12214;SDS011;6170;42.206;24.142;2022-11-02T08:40:53;23.23;;;8.48;;
12214;SDS011;6170;42.206;24.142;2022-11-02T08:43:20;22.00;;;8.23;;
12214;SDS011;6170;42.206;24.142;2022-11-02T08:45:47;29.00;;;7.70;;
12214;SDS011;6170;42.206;24.142;2022-11-02T08:48:15;22.75;;;7.60;;
12214;SDS011;6170;42.206;24.142;2022-11-02T08:50:42;17.52;;;5.95;;
12214;SDS011;6170;42.206;24.142;2022-11-02T08:53:08;22.02;;;6.38;;
12214;SDS011;6170;42.206;24.142;2022-11-02T08:55:35;20.65;;;6.63;;
12214;SDS011;6170;42.206;24.142;2022-11-02T08:58:02;20.85;;;5.68;;
12214;SDS011;6170;42.206;24.142;2022-11-02T09:00:29;13.90;;;6.22;;
12214;SDS011;6170;42.206;24.142;2022-11-02T09:02:58;19.70;;;6.18;;
12214;SDS011;6170;42.206;24.142;2022-11-02T09:05:28;20.52;;;6.15;;
12214;SDS011;6170;42.206;24.142;2022-11-02T09:07:56;22.60;;;6.63;;
12214;SDS011;6170;42.206;24.142;2022-11-02T09:10:23;17.27;;;5.35;;
12214;SDS011;6170;42.206;24.142;2022-11-02T09:12:51;13.93;;;5.40;;
12214;SDS011;6170;42.206;24.142;2022-11-02T09:15:18;21.17;;;6.00;;
12214;SDS011;6170;42.206;24.142;2022-11-02T09:17:45;20.35;;;5.57;;
12214;SDS011;6170;42.206;24.142;2022-11-02T09:20:13;17.55;;;6.13;;
12214;SDS011;6170;42.206;24.142;2022-11-02T09:22:41;17.88;;;5.25;;
12214;SDS011;6170;42.206;24.142;2022-11-02T09:25:08;23.58;;;6.68;;
12214;SDS011;6170;42.206;24.142;2022-11-02T09:27:35;17.17;;;6.47;;
12214;SDS011;6170;42.206;24.142;2022-11-02T09:30:02;17.33;;;6.13;;
12214;SDS011;6170;42.206;24.142;2022-11-02T09:32:30;20.98;;;7.30;;
12214;SDS011;6170;42.206;24.142;2022-11-02T09:34:58;17.23;;;7.50;;
12214;SDS011;6170;42.206;24.142;2022-11-02T09:37:25;21.95;;;7.80;;
12214;SDS011;6170;42.206;24.142;2022-11-02T09:39:53;25.73;;;9.43;;
12214;SDS011;6170;42.206;24.142;2022-11-02T09:42:21;24.20;;;8.25;;
12214;SDS011;6170;42.206;24.142;2022-11-02T09:44:52;20.30;;;7.68;;
12214;SDS011;6170;42.206;24.142;2022-11-02T09:47:24;19.85;;;7.28;;
12214;SDS011;6170;42.206;24.142;2022-11-02T09:49:53;18.98;;;6.43;;
12214;SDS011;6170;42.206;24.142;2022-11-02T09:52:25;24.83;;;7.15;;
12214;SDS011;6170;42.206;24.142;2022-11-02T09:54:58;25.33;;;8.85;;
12214;SDS011;6170;42.206;24.142;2022-11-02T09:57:29;14.07;;;6.28;;
12214;SDS011;6170;42.206;24.142;2022-11-02T09:59:59;12.68;;;5.85;;
12214;SDS011;6170;42.206;24.142;2022-11-02T10:02:29;19.05;;;5.93;;
12214;SDS011;6170;42.206;24.142;2022-11-02T10:05:23;16.95;;;5.32;;
12214;SDS011;6170;42.206;24.142;2022-11-02T10:08:00;13.32;;;5.18;;
12214;SDS011;6170;42.206;24.142;2022-11-02T10:10:40;14.50;;;5.00;;
12214;SDS011;6170;42.206;24.142;2022-11-02T10:13:20;19.30;;;5.25;;
12214;SDS011;6170;42.206;24.142;2022-11-02T10:15:55;17.60;;;5.00;;
12214;SDS011;6170;42.206;24.142;2022-11-02T10:18:26;13.60;;;5.32;;
12214;SDS011;6170;42.206;24.142;2022-11-02T10:20:56;12.63;;;4.80;;
12214;SDS011;6170;42.206;24.142;2022-11-02T10:23:26;13.18;;;5.07;;
12214;SDS011;6170;42.206;24.142;2022-11-02T10:25:58;16.45;;;5.05;;
12214;SDS011;6170;42.206;24.142;2022-11-02T10:28:28;14.73;;;4.82;;
12214;SDS011;6170;42.206;24.142;2022-11-02T10:30:58;21.85;;;5.25;;
12214;SDS011;6170;42.206;24.142;2022-11-02T10:33:27;31.75;;;6.32;;
12214;SDS011;6170;42.206;24.142;2022-11-02T10:35:59;13.73;;;3.85;;
12214;SDS011;6170;42.206;24.142;2022-11-02T10:38:40;19.55;;;5.43;;
12214;SDS011;6170;42.206;24.142;2022-11-02T10:41:26;16.88;;;4.85;;
12214;SDS011;6170;42.206;24.142;2022-11-02T10:44:17;15.38;;;4.82;;
12214;SDS011;6170;42.206;24.142;2022-11-02T10:46:57;18.58;;;4.45;;
12214;SDS011;6170;42.206;24.142;2022-11-02T10:49:38;11.75;;;5.30;;
12214;SDS011;6170;42.206;24.142;2022-11-02T10:52:20;17.60;;;6.65;;
12214;SDS011;6170;42.206;24.142;2022-11-02T10:54:48;17.73;;;5.55;;
12214;SDS011;6170;42.206;24.142;2022-11-02T10:57:19;14.65;;;4.97;;
12214;SDS011;6170;42.206;24.142;2022-11-02T10:59:55;13.25;;;4.35;;
12214;SDS011;6170;42.206;24.142;2022-11-02T11:03:02;15.60;;;4.68;;
12214;SDS011;6170;42.206;24.142;2022-11-02T11:05:30;12.07;;;3.70;;
12214;SDS011;6170;42.206;24.142;2022-11-02T11:07:58;14.43;;;4.75;;
12214;SDS011;6170;42.206;24.142;2022-11-02T11:10:25;11.88;;;4.03;;
12214;SDS011;6170;42.206;24.142;2022-11-02T11:12:54;11.55;;;4.28;;
12214;SDS011;6170;42.206;24.142;2022-11-02T11:15:21;11.93;;;4.35;;
12214;SDS011;6170;42.206;24.142;2022-11-02T11:17:51;15.60;;;4.25;;
12214;SDS011;6170;42.206;24.142;2022-11-02T11:20:25;15.55;;;4.65;;
12214;SDS011;6170;42.206;24.142;2022-11-02T11:23:07;14.23;;;4.15;;
12214;SDS011;6170;42.206;24.142;2022-11-02T11:25:40;17.63;;;4.78;;
12214;SDS011;6170;42.206;24.142;2022-11-02T11:28:19;24.77;;;4.53;;
12214;SDS011;6170;42.206;24.142;2022-11-02T11:30:48;8.52;;;4.05;;
12214;SDS011;6170;42.206;24.142;2022-11-02T11:33:27;26.05;;;4.25;;
12214;SDS011;6170;42.206;24.142;2022-11-02T11:35:55;13.98;;;4.72;;
12214;SDS011;6170;42.206;24.142;2022-11-02T11:38:22;17.35;;;4.18;;
12214;SDS011;6170;42.206;24.142;2022-11-02T11:40:52;14.52;;;4.68;;
12214;SDS011;6170;42.206;24.142;2022-11-02T11:43:23;20.25;;;4.03;;
12214;SDS011;6170;42.206;24.142;2022-11-02T11:45:53;13.18;;;3.60;;
12214;SDS011;6170;42.206;24.142;2022-11-02T11:48:22;16.70;;;4.25;;
12214;SDS011;6170;42.206;24.142;2022-11-02T11:50:57;13.93;;;4.43;;
12214;SDS011;6170;42.206;24.142;2022-11-02T11:53:26;16.75;;;4.65;;
12214;SDS011;6170;42.206;24.142;2022-11-02T11:55:53;22.67;;;7.63;;
12214;SDS011;6170;42.206;24.142;2022-11-02T11:58:24;35.03;;;13.65;;
12214;SDS011;6170;42.206;24.142;2022-11-02T12:01:02;50.50;;;18.65;;
12214;SDS011;6170;42.206;24.142;2022-11-02T12:03:31;20.88;;;7.53;;
12214;SDS011;6170;42.206;24.142;2022-11-02T12:06:00;13.10;;;5.07;;
12214;SDS011;6170;42.206;24.142;2022-11-02T12:08:42;10.25;;;4.10;;
12214;SDS011;6170;42.206;24.142;2022-11-02T12:11:25;13.82;;;3.67;;
12214;SDS011;6170;42.206;24.142;2022-11-02T12:14:14;12.60;;;4.07;;
12214;SDS011;6170;42.206;24.142;2022-11-02T12:16:58;29.02;;;12.05;;
12214;SDS011;6170;42.206;24.142;2022-11-02T12:19:46;18.38;;;5.07;;
12214;SDS011;6170;42.206;24.142;2022-11-02T12:22:35;14.15;;;3.65;;
12214;SDS011;6170;42.206;24.142;2022-11-02T12:27:56;17.25;;;3.60;;
12214;SDS011;6170;42.206;24.142;2022-11-02T12:30:41;18.33;;;4.32;;
12214;SDS011;6170;42.206;24.142;2022-11-02T12:33:21;16.80;;;4.60;;
12214;SDS011;6170;42.206;24.142;2022-11-02T12:36:00;14.63;;;4.15;;
12214;SDS011;6170;42.206;24.142;2022-11-02T12:38:38;11.98;;;3.60;;
12214;SDS011;6170;42.206;24.142;2022-11-02T12:41:16;11.25;;;3.75;;
12214;SDS011;6170;42.206;24.142;2022-11-02T12:43:57;11.27;;;3.25;;
12214;SDS011;6170;42.206;24.142;2022-11-02T12:46:35;13.13;;;3.40;;
12214;SDS011;6170;42.206;24.142;2022-11-02T12:49:14;12.77;;;3.65;;
12214;SDS011;6170;42.206;24.142;2022-11-02T12:51:58;9.25;;;3.45;;
12214;SDS011;6170;42.206;24.142;2022-11-02T12:54:33;17.42;;;3.40;;
12214;SDS011;6170;42.206;24.142;2022-11-02T12:57:07;14.35;;;3.47;;
12214;SDS011;6170;42.206;24.142;2022-11-02T12:59:38;14.93;;;3.35;;
12214;SDS011;6170;42.206;24.142;2022-11-02T13:02:11;14.85;;;3.15;;
12214;SDS011;6170;42.206;24.142;2022-11-02T13:04:43;13.23;;;3.30;;
12214;SDS011;6170;42.206;24.142;2022-11-02T13:07:15;28.77;;;4.20;;
12214;SDS011;6170;42.206;24.142;2022-11-02T13:09:49;11.80;;;2.88;;
12214;SDS011;6170;42.206;24.142;2022-11-02T13:12:19;9.80;;;2.97;;
12214;SDS011;6170;42.206;24.142;2022-11-02T13:14:49;16.70;;;3.63;;
12214;SDS011;6170;42.206;24.142;2022-11-02T13:17:20;10.93;;;2.67;;
12214;SDS011;6170;42.206;24.142;2022-11-02T13:19:52;13.63;;;3.72;;
12214;SDS011;6170;42.206;24.142;2022-11-02T13:22:23;14.18;;;2.88;;
12214;SDS011;6170;42.206;24.142;2022-11-02T13:24:54;22.07;;;3.50;;
12214;SDS011;6170;42.206;24.142;2022-11-02T13:27:26;9.50;;;3.08;;
12214;SDS011;6170;42.206;24.142;2022-11-02T13:29:57;11.07;;;3.13;;
12214;SDS011;6170;42.206;24.142;2022-11-02T13:32:29;23.83;;;3.80;;
12214;SDS011;6170;42.206;24.142;2022-11-02T13:35:02;11.95;;;3.20;;
12214;SDS011;6170;42.206;24.142;2022-11-02T13:37:39;10.18;;;3.08;;
12214;SDS011;6170;42.206;24.142;2022-11-02T13:40:11;14.98;;;3.53;;
12214;SDS011;6170;42.206;24.142;2022-11-02T13:42:50;21.52;;;4.25;;
12214;SDS011;6170;42.206;24.142;2022-11-02T13:45:51;17.05;;;3.20;;
12214;SDS011;6170;42.206;24.142;2022-11-02T13:48:39;15.60;;;3.63;;
12214;SDS011;6170;42.206;24.142;2022-11-02T13:51:18;12.75;;;3.08;;
12214;SDS011;6170;42.206;24.142;2022-11-02T13:53:51;19.83;;;3.90;;
12214;SDS011;6170;42.206;24.142;2022-11-02T13:56:21;21.27;;;3.78;;
12214;SDS011;6170;42.206;24.142;2022-11-02T13:58:54;11.27;;;2.67;;
12214;SDS011;6170;42.206;24.142;2022-11-02T14:01:24;12.70;;;3.15;;
12214;SDS011;6170;42.206;24.142;2022-11-02T14:03:54;18.15;;;3.22;;
12214;SDS011;6170;42.206;24.142;2022-11-02T14:06:23;9.30;;;3.60;;
12214;SDS011;6170;42.206;24.142;2022-11-02T14:08:51;15.70;;;3.17;;
12214;SDS011;6170;42.206;24.142;2022-11-02T14:11:23;10.02;;;2.92;;
12214;SDS011;6170;42.206;24.142;2022-11-02T14:16:45;18.05;;;3.90;;
12214;SDS011;6170;42.206;24.142;2022-11-02T14:19:49;10.65;;;3.28;;
12214;SDS011;6170;42.206;24.142;2022-11-02T14:22:20;10.88;;;3.22;;
12214;SDS011;6170;42.206;24.142;2022-11-02T14:24:54;13.55;;;3.60;;
12214;SDS011;6170;42.206;24.142;2022-11-02T14:27:36;12.10;;;3.70;;
12214;SDS011;6170;42.206;24.142;2022-11-02T14:30:03;19.83;;;2.95;;
12214;SDS011;6170;42.206;24.142;2022-11-02T14:32:38;14.07;;;3.00;;
12214;SDS011;6170;42.206;24.142;2022-11-02T14:35:35;15.45;;;4.18;;
12214;SDS011;6170;42.206;24.142;2022-11-02T14:41:01;18.58;;;6.63;;
12214;SDS011;6170;42.206;24.142;2022-11-02T14:46:51;14.48;;;4.43;;
12214;SDS011;6170;42.206;24.142;2022-11-02T14:49:22;15.10;;;4.35;;
12214;SDS011;6170;42.206;24.142;2022-11-02T14:52:01;17.10;;;4.13;;
12214;SDS011;6170;42.206;24.142;2022-11-02T14:54:31;21.05;;;4.03;;
12214;SDS011;6170;42.206;24.142;2022-11-02T14:57:02;26.38;;;4.88;;
12214;SDS011;6170;42.206;24.142;2022-11-02T14:59:32;18.02;;;4.68;;
12214;SDS011;6170;42.206;24.142;2022-11-02T15:02:00;27.40;;;4.40;;
12214;SDS011;6170;42.206;24.142;2022-11-02T15:04:30;23.05;;;4.43;;
12214;SDS011;6170;42.206;24.142;2022-11-02T15:07:02;27.67;;;11.93;;